Time;durP1;ratioP1;P1;durP2;ratioP2;P2;SDS_P1;SDS_P2;PMS_P1;PMS_P2;Temp;Humidity;BMP_temperature;BMP_pressure;BME280_temperature;BME280_humidity;BME280_pressure;Samples;Min_cycle;Max_cycle;Signal;HPM_P1;HPM_P2
2023/02/08 00:01:22;;;;;;;27.45;17.40;;;;;;;;;;5035674;28;20056;-76
2023/02/08 00:03:49;;;;;;;26.45;16.17;;;;;;;;;;5054865;28;20060;-76
2023/02/08 00:06:16;;;;;;;22.05;15.00;;;;;;;;;;5054364;28;20041;-76
2023/02/08 00:08:43;;;;;;;22.48;14.00;;;;;;;;;;5022116;28;20060;-76
2023/02/08 00:11:10;;;;;;;21.63;13.90;;;;;;;;;;5034856;28;20053;-76
2023/02/08 00:13:38;;;;;;;19.15;12.57;;;;;;;;;;5053414;28;20048;-76
2023/02/08 00:16:08;;;;;;;16.05;11.07;;;;;;;;;;5035061;28;20059;-76
2023/02/08 00:18:35;;;;;;;19.60;11.88;;;;;;;;;;5036204;28;20355;-76
2023/02/08 00:21:07;;;;;;;15.57;10.68;;;;;;;;;;5037805;28;20053;-76
2023/02/08 00:23:33;;;;;;;17.23;10.75;;;;;;;;;;5038395;28;20052;-76
2023/02/08 00:26:00;;;;;;;17.02;9.95;;;;;;;;;;5034306;28;20416;-76
2023/02/08 00:28:27;;;;;;;15.20;9.82;;;;;;;;;;5037710;28;20478;-76
2023/02/08 00:30:54;;;;;;;16.00;10.43;;;;;;;;;;5070820;28;20508;-76
2023/02/08 00:33:21;;;;;;;15.07;9.60;;;;;;;;;;5038663;28;20182;-76
2023/02/08 00:35:48;;;;;;;16.77;9.82;;;;;;;;;;5033937;28;20072;-76
2023/02/08 00:38:14;;;;;;;17.33;10.13;;;;;;;;;;5034380;28;20048;-76
2023/02/08 00:40:41;;;;;;;15.23;9.75;;;;;;;;;;5050512;28;20417;-75
2023/02/08 00:43:08;;;;;;;14.55;8.65;;;;;;;;;;5037870;28;20129;-76
2023/02/08 00:45:35;;;;;;;13.75;8.73;;;;;;;;;;5034501;28;20080;-77
2023/02/08 00:48:02;;;;;;;15.18;9.68;;;;;;;;;;5048312;28;20045;-77
2023/02/08 00:50:29;;;;;;;13.52;9.27;;;;;;;;;;5055036;28;20062;-77
2023/02/08 00:52:57;;;;;;;13.73;8.93;;;;;;;;;;5050516;28;20063;-75
2023/02/08 00:55:24;;;;;;;16.17;9.60;;;;;;;;;;5043294;28;20048;-76
2023/02/08 00:57:51;;;;;;;14.73;9.85;;;;;;;;;;5033650;28;20508;-76
2023/02/08 01:00:18;;;;;;;13.90;9.80;;;;;;;;;;5037071;28;20049;-76
2023/02/08 01:02:45;;;;;;;16.30;10.50;;;;;;;;;;5033565;28;20052;-76
2023/02/08 01:05:12;;;;;;;16.92;10.73;;;;;;;;;;5021934;28;20055;-77
2023/02/08 01:07:39;;;;;;;18.92;11.90;;;;;;;;;;5037408;28;20121;-76
2023/02/08 01:10:06;;;;;;;19.17;10.45;;;;;;;;;;5033976;28;20060;-77
2023/02/08 01:12:33;;;;;;;17.40;11.45;;;;;;;;;;5037946;28;20280;-76
2023/02/08 01:15:00;;;;;;;19.80;11.40;;;;;;;;;;5035197;28;20445;-77
2023/02/08 01:17:27;;;;;;;15.88;11.35;;;;;;;;;;5024778;28;20049;-77
2023/02/08 01:19:53;;;;;;;20.52;11.93;;;;;;;;;;5037910;28;20131;-76
2023/02/08 01:22:20;;;;;;;18.90;12.45;;;;;;;;;;5037808;28;20555;-76
2023/02/08 01:24:47;;;;;;;18.95;11.82;;;;;;;;;;5037098;28;20052;-76
2023/02/08 01:27:13;;;;;;;18.67;12.18;;;;;;;;;;5037451;28;20053;-75
2023/02/08 01:29:40;;;;;;;16.27;11.25;;;;;;;;;;5036748;28;20055;-76
2023/02/08 01:32:07;;;;;;;20.23;12.20;;;;;;;;;;5036734;28;20151;-76
2023/02/08 01:34:34;;;;;;;19.40;12.02;;;;;;;;;;5036863;28;20106;-75
2023/02/08 01:37:00;;;;;;;16.85;11.65;;;;;;;;;;5036901;28;20048;-76
2023/02/08 01:39:27;;;;;;;17.38;11.60;;;;;;;;;;5036415;28;20135;-76
2023/02/08 01:41:54;;;;;;;19.42;11.57;;;;;;;;;;5037001;28;20056;-76
2023/02/08 01:44:58;;;;;;;14.82;10.38;;;;;;;;;;5052935;28;20420;-75
2023/02/08 01:47:25;;;;;;;16.13;11.55;;;;;;;;;;5070686;28;20063;-75
2023/02/08 01:49:52;;;;;;;18.70;11.82;;;;;;;;;;5036648;28;20056;-76
2023/02/08 01:52:21;;;;;;;18.70;11.98;;;;;;;;;;5032726;28;20057;-75
2023/02/08 01:55:15;;;;;;;18.17;10.90;;;;;;;;;;5033721;28;20435;-75
2023/02/08 01:57:42;;;;;;;18.98;12.02;;;;;;;;;;5048178;28;20080;-76
2023/02/08 02:00:21;;;;;;;17.30;11.68;;;;;;;;;;5036178;28;20287;-76
2023/02/08 02:02:52;;;;;;;17.23;11.73;;;;;;;;;;5036578;28;20076;-76
2023/02/08 02:05:21;;;;;;;20.02;11.95;;;;;;;;;;5036945;28;20059;-76
2023/02/08 02:07:48;;;;;;;18.65;11.57;;;;;;;;;;5036129;28;20080;-75
2023/02/08 02:10:25;;;;;;;15.93;11.25;;;;;;;;;;5032478;28;20136;-76
2023/02/08 02:12:53;;;;;;;19.75;11.85;;;;;;;;;;5031964;28;20056;-76
2023/02/08 02:15:20;;;;;;;18.67;12.05;;;;;;;;;;5032444;28;20048;-76
2023/02/08 02:17:47;;;;;;;20.17;11.98;;;;;;;;;;5035975;28;20063;-76
2023/02/08 02:20:44;;;;;;;18.60;12.88;;;;;;;;;;5032534;28;20444;-76
2023/02/08 02:23:46;;;;;;;17.48;11.38;;;;;;;;;;5042395;28;20045;-76
2023/02/08 02:26:48;;;;;;;20.33;13.00;;;;;;;;;;5069859;28;20063;-77
2023/02/08 02:29:38;;;;;;;19.08;12.15;;;;;;;;;;5053770;28;20056;-77
2023/02/08 02:32:08;;;;;;;21.50;12.27;;;;;;;;;;5051665;28;20048;-76
2023/02/08 02:35:19;;;;;;;19.77;12.02;;;;;;;;;;5070120;28;20048;-76
2023/02/08 02:38:06;;;;;;;19.58;12.40;;;;;;;;;;5051887;28;20056;-77
2023/02/08 02:40:40;;;;;;;17.88;11.52;;;;;;;;;;5054446;28;20418;-76
2023/02/08 02:43:41;;;;;;;21.23;12.02;;;;;;;;;;5053311;28;20071;-77
2023/02/08 02:46:24;;;;;;;17.23;11.60;;;;;;;;;;5039178;28;20052;-76
2023/02/08 02:49:00;;;;;;;;;;;;;;;;;;5048591;28;20048;-75
2023/02/08 02:51:39;;;;;;;16.30;11.10;;;;;;;;;;5057330;28;20011;-75
2023/02/08 02:54:12;;;;;;;17.63;11.68;;;;;;;;;;5048555;28;20295;-75
2023/02/08 02:56:41;;;;;;;16.60;11.02;;;;;;;;;;5057291;28;20052;-75
2023/02/08 02:59:10;;;;;;;17.58;12.00;;;;;;;;;;5046477;28;20052;-75
2023/02/08 03:01:38;;;;;;;18.05;12.10;;;;;;;;;;5050543;28;20529;-75
2023/02/08 03:04:31;;;;;;;16.80;11.30;;;;;;;;;;5052401;28;20048;-75
2023/02/08 03:07:19;;;;;;;17.42;11.82;;;;;;;;;;5054005;28;20076;-74
2023/02/08 03:10:14;;;;;;;17.35;11.70;;;;;;;;;;5069218;28;20049;-74
2023/02/08 03:13:14;;;;;;;23.33;13.07;;;;;;;;;;5068332;28;20072;-74
2023/02/08 03:15:47;;;;;;;20.33;12.45;;;;;;;;;;5053001;28;20063;-74
2023/02/08 03:18:36;;;;;;;18.23;11.95;;;;;;;;;;5067131;28;20570;-74
2023/02/08 03:21:02;;;;;;;16.77;11.52;;;;;;;;;;5035966;28;20416;-75
2023/02/08 03:23:58;;;;;;;19.42;12.80;;;;;;;;;;5068296;28;20083;-74
2023/02/08 03:26:41;;;;;;;17.55;11.75;;;;;;;;;;5051700;28;20462;-74
2023/02/08 03:29:15;;;;;;;20.52;13.57;;;;;;;;;;5051843;28;20408;-76
2023/02/08 03:31:50;;;;;;;19.65;11.88;;;;;;;;;;5035762;28;20132;-76
2023/02/08 03:34:46;;;;;;;20.05;12.27;;;;;;;;;;5035923;28;20143;-76
2023/02/08 03:37:17;;;;;;;17.70;11.85;;;;;;;;;;5067396;28;20045;-75
2023/02/08 03:39:44;;;;;;;23.42;13.13;;;;;;;;;;5035692;28;20432;-75
2023/02/08 03:42:16;;;;;;;22.90;13.93;;;;;;;;;;5057181;28;20071;-75
2023/02/08 03:44:47;;;;;;;18.00;13.25;;;;;;;;;;5046809;28;20398;-76
2023/02/08 03:47:22;;;;;;;20.83;14.02;;;;;;;;;;5038338;28;20048;-75
2023/02/08 03:49:51;;;;;;;17.98;12.23;;;;;;;;;;5043980;28;20052;-75
2023/02/08 03:52:18;;;;;;;27.15;13.95;;;;;;;;;;5054621;28;20104;-76
2023/02/08 03:54:51;;;;;;;20.83;14.32;;;;;;;;;;5072199;28;20048;-75
2023/02/08 03:57:18;;;;;;;21.85;12.88;;;;;;;;;;5042476;28;20408;-75
2023/02/08 03:59:51;;;;;;;20.52;13.98;;;;;;;;;;5070709;28;20056;-75
2023/02/08 04:02:20;;;;;;;22.05;14.70;;;;;;;;;;5036549;28;20060;-76
2023/02/08 04:04:48;;;;;;;25.92;14.65;;;;;;;;;;5035820;28;20049;-76
2023/02/08 04:07:16;;;;;;;23.15;14.48;;;;;;;;;;5054354;28;20040;-75
2023/02/08 04:09:43;;;;;;;20.55;13.45;;;;;;;;;;5034885;28;20483;-76
2023/02/08 04:12:10;;;;;;;23.02;14.52;;;;;;;;;;5029373;28;20044;-76
2023/02/08 04:14:37;;;;;;;23.15;15.15;;;;;;;;;;5038309;28;20101;-76
2023/02/08 04:17:04;;;;;;;21.63;14.20;;;;;;;;;;5072411;28;20059;-76
2023/02/08 04:19:31;;;;;;;22.02;15.80;;;;;;;;;;5034666;28;20064;-76
2023/02/08 04:21:58;;;;;;;21.85;15.57;;;;;;;;;;5035431;28;20523;-76
2023/02/08 04:24:25;;;;;;;24.05;14.88;;;;;;;;;;5036950;28;20045;-74
2023/02/08 04:26:52;;;;;;;20.60;14.23;;;;;;;;;;5071554;28;20588;-75
2023/02/08 04:29:19;;;;;;;20.65;14.63;;;;;;;;;;5038807;28;20056;-73
2023/02/08 04:31:46;;;;;;;22.10;15.13;;;;;;;;;;5034234;28;20056;-74
2023/02/08 04:34:13;;;;;;;21.73;14.65;;;;;;;;;;5049045;28;20045;-74
2023/02/08 04:36:39;;;;;;;22.73;14.85;;;;;;;;;;5055160;28;20063;-74
2023/02/08 04:39:06;;;;;;;20.15;13.85;;;;;;;;;;5055046;28;20416;-73
2023/02/08 04:41:33;;;;;;;21.33;15.10;;;;;;;;;;5039146;28;20045;-74
2023/02/08 04:44:00;;;;;;;19.65;14.35;;;;;;;;;;5038813;28;20056;-74
2023/02/08 04:46:27;;;;;;;23.83;15.93;;;;;;;;;;5055150;28;20045;-74
2023/02/08 04:48:54;;;;;;;22.85;15.93;;;;;;;;;;5055242;28;20053;-73
2023/02/08 04:51:23;;;;;;;23.50;16.75;;;;;;;;;;5055839;28;20091;-74
2023/02/08 04:53:50;;;;;;;24.75;16.88;;;;;;;;;;5054779;28;20059;-75
2023/02/08 04:56:17;;;;;;;24.60;16.63;;;;;;;;;;5038969;28;20398;-74
2023/02/08 04:58:44;;;;;;;27.58;17.63;;;;;;;;;;5038336;28;20057;-73
2023/02/08 05:01:10;;;;;;;24.42;16.73;;;;;;;;;;5054615;28;20055;-74
2023/02/08 05:03:37;;;;;;;24.63;15.95;;;;;;;;;;5054435;28;20397;-73
2023/02/08 05:06:04;;;;;;;25.90;17.23;;;;;;;;;;5037125;28;20048;-74
2023/02/08 05:08:31;;;;;;;25.90;16.65;;;;;;;;;;5049961;28;20056;-73
2023/02/08 05:10:58;;;;;;;26.40;16.80;;;;;;;;;;5065927;28;20052;-73
2023/02/08 05:13:25;;;;;;;24.50;16.40;;;;;;;;;;5053524;28;20421;-74
2023/02/08 05:15:51;;;;;;;24.48;16.80;;;;;;;;;;5036813;28;20066;-74
2023/02/08 05:18:18;;;;;;;23.48;16.88;;;;;;;;;;5037018;28;20102;-74
2023/02/08 05:20:58;;;;;;;23.85;16.50;;;;;;;;;;5053595;28;20481;-74
2023/02/08 05:23:26;;;;;;;24.42;16.42;;;;;;;;;;5038506;28;20052;-74
2023/02/08 05:25:53;;;;;;;25.35;17.50;;;;;;;;;;5036751;28;20056;-74
2023/02/08 05:28:19;;;;;;;24.80;16.33;;;;;;;;;;5052810;28;20135;-74
2023/02/08 05:30:46;;;;;;;25.33;16.67;;;;;;;;;;5037052;28;20083;-73
2023/02/08 05:33:13;;;;;;;26.67;17.17;;;;;;;;;;5036767;28;20056;-74
2023/02/08 05:35:40;;;;;;;27.77;18.67;;;;;;;;;;5036256;28;20048;-73
2023/02/08 05:38:07;;;;;;;30.45;19.48;;;;;;;;;;5053250;28;20053;-74
2023/02/08 05:40:35;;;;;;;28.05;19.35;;;;;;;;;;5053285;28;20048;-74
2023/02/08 05:43:02;;;;;;;25.42;17.55;;;;;;;;;;5036659;28;20055;-74
2023/02/08 05:45:28;;;;;;;27.83;18.75;;;;;;;;;;5036980;28;20381;-73
2023/02/08 05:47:55;;;;;;;29.88;18.88;;;;;;;;;;5068963;28;20485;-74
2023/02/08 05:50:22;;;;;;;25.70;17.65;;;;;;;;;;5025023;28;20052;-74
2023/02/08 05:52:49;;;;;;;26.58;18.75;;;;;;;;;;5046063;28;20059;-74
2023/02/08 05:55:16;;;;;;;27.80;19.83;;;;;;;;;;5030434;28;20057;-73
2023/02/08 05:57:42;;;;;;;44.42;25.55;;;;;;;;;;5030494;28;20059;-74
2023/02/08 06:00:10;;;;;;;40.63;27.05;;;;;;;;;;5035188;28;20056;-74
2023/02/08 06:02:36;;;;;;;30.27;21.85;;;;;;;;;;5069013;28;20104;-74
2023/02/08 06:05:03;;;;;;;34.67;22.27;;;;;;;;;;5067314;28;20486;-74
2023/02/08 06:07:30;;;;;;;29.20;19.70;;;;;;;;;;5066037;28;20048;-75
2023/02/08 06:09:57;;;;;;;31.40;19.42;;;;;;;;;;5042002;28;20049;-75
2023/02/08 06:12:24;;;;;;;33.05;20.17;;;;;;;;;;5052499;28;20066;-75
2023/02/08 06:14:51;;;;;;;29.35;19.65;;;;;;;;;;5049205;28;20059;-75
2023/02/08 06:17:17;;;;;;;29.65;18.45;;;;;;;;;;5065579;28;20049;-75
2023/02/08 06:19:44;;;;;;;29.70;19.85;;;;;;;;;;5032410;28;20432;-75
2023/02/08 06:22:11;;;;;;;28.50;18.88;;;;;;;;;;5035419;28;20044;-74
2023/02/08 06:24:38;;;;;;;34.00;20.52;;;;;;;;;;5052446;28;20440;-73
2023/02/08 06:27:05;;;;;;;30.73;20.15;;;;;;;;;;5051984;28;20059;-74
2023/02/08 06:29:31;;;;;;;32.63;19.48;;;;;;;;;;5051886;28;20048;-73
2023/02/08 06:31:58;;;;;;;32.47;19.17;;;;;;;;;;5052256;28;20055;-74
2023/02/08 06:34:25;;;;;;;31.50;19.75;;;;;;;;;;5051984;28;20052;-75
2023/02/08 06:36:52;;;;;;;31.55;21.35;;;;;;;;;;5068717;28;20048;-74
2023/02/08 06:39:19;;;;;;;36.00;21.30;;;;;;;;;;5035823;28;20139;-75
2023/02/08 06:41:46;;;;;;;40.95;23.90;;;;;;;;;;5068140;28;20131;-74
2023/02/08 06:44:12;;;;;;;33.55;22.15;;;;;;;;;;5051856;28;20079;-73
2023/02/08 06:46:39;;;;;;;35.58;21.20;;;;;;;;;;5035459;28;20059;-74
2023/02/08 06:49:06;;;;;;;41.97;24.25;;;;;;;;;;5051613;28;20044;-73
2023/02/08 06:51:34;;;;;;;38.53;23.95;;;;;;;;;;5068640;28;20049;-73
2023/02/08 06:54:01;;;;;;;34.47;21.95;;;;;;;;;;5035198;28;20053;-74
2023/02/08 06:56:28;;;;;;;34.10;22.15;;;;;;;;;;5048351;28;20057;-73
2023/02/08 06:58:55;;;;;;;32.42;19.80;;;;;;;;;;5014337;28;20049;-74
2023/02/08 07:01:23;;;;;;;31.38;20.23;;;;;;;;;;5031975;28;20053;-76
2023/02/08 07:03:49;;;;;;;32.35;20.45;;;;;;;;;;5030613;28;20088;-73
2023/02/08 07:06:18;;;;;;;34.33;21.58;;;;;;;;;;5030592;28;20548;-73
2023/02/08 07:08:46;;;;;;;31.23;18.80;;;;;;;;;;5038271;28;20036;-75
2023/02/08 07:11:15;;;;;;;31.88;20.83;;;;;;;;;;5033868;28;20056;-75
2023/02/08 07:13:46;;;;;;;32.85;19.42;;;;;;;;;;5034210;28;20060;-75
2023/02/08 07:16:13;;;;;;;28.83;18.85;;;;;;;;;;5034569;28;20067;-75
2023/02/08 07:18:40;;;;;;;34.67;19.83;;;;;;;;;;5033833;28;20535;-75
2023/02/08 07:21:07;;;;;;;29.75;19.60;;;;;;;;;;5034118;28;20053;-75
2023/02/08 07:23:34;;;;;;;27.55;18.58;;;;;;;;;;5052385;28;20059;-75
2023/02/08 07:26:04;;;;;;;30.35;18.42;;;;;;;;;;5037741;28;20523;-76
2023/02/08 07:28:30;;;;;;;26.95;18.13;;;;;;;;;;5037725;28;20063;-76
2023/02/08 07:30:57;;;;;;;29.95;18.08;;;;;;;;;;5038098;28;20044;-75
2023/02/08 07:33:25;;;;;;;26.08;16.27;;;;;;;;;;5037537;28;20063;-74
2023/02/08 07:35:51;;;;;;;26.73;16.60;;;;;;;;;;5037541;28;20059;-74
2023/02/08 07:38:18;;;;;;;26.38;18.23;;;;;;;;;;5037919;28;20049;-72
2023/02/08 07:40:46;;;;;;;30.70;19.40;;;;;;;;;;5038238;28;20106;-73
2023/02/08 07:43:13;;;;;;;35.78;19.55;;;;;;;;;;5037906;28;20068;-75
2023/02/08 07:45:40;;;;;;;29.17;18.55;;;;;;;;;;5053816;28;20508;-74
2023/02/08 07:48:07;;;;;;;31.45;18.75;;;;;;;;;;5037692;28;20127;-74
2023/02/08 07:50:34;;;;;;;27.85;16.75;;;;;;;;;;5037156;28;20163;-73
2023/02/08 07:53:01;;;;;;;23.63;15.70;;;;;;;;;;5037198;28;20424;-74
2023/02/08 07:55:28;;;;;;;28.80;16.75;;;;;;;;;;5037318;28;20394;-73
2023/02/08 07:57:56;;;;;;;26.67;16.80;;;;;;;;;;5053543;28;20052;-73
2023/02/08 08:00:23;;;;;;;34.28;21.58;;;;;;;;;;5037378;28;20049;-73
2023/02/08 08:02:50;;;;;;;34.83;21.02;;;;;;;;;;5033378;28;20060;-72
2023/02/08 08:05:17;;;;;;;28.52;17.58;;;;;;;;;;5034030;28;20086;-72
2023/02/08 08:07:44;;;;;;;26.20;17.15;;;;;;;;;;5017203;28;20084;-71
2023/02/08 08:10:10;;;;;;;31.38;18.23;;;;;;;;;;5017342;28;20568;-73
2023/02/08 08:12:37;;;;;;;29.52;15.70;;;;;;;;;;5033437;28;20048;-72
2023/02/08 08:15:04;;;;;;;26.23;16.08;;;;;;;;;;5017044;28;20055;-72
2023/02/08 08:17:31;;;;;;;31.13;17.20;;;;;;;;;;5029479;28;20053;-74
2023/02/08 08:19:58;;;;;;;27.13;15.75;;;;;;;;;;5049275;28;20710;-74
2023/02/08 08:22:26;;;;;;;26.50;16.48;;;;;;;;;;5049848;28;20134;-75
2023/02/08 08:24:53;;;;;;;28.52;16.30;;;;;;;;;;5031657;28;20049;-74
2023/02/08 08:27:20;;;;;;;25.73;16.45;;;;;;;;;;5032862;28;20056;-74
2023/02/08 08:29:47;;;;;;;27.90;15.93;;;;;;;;;;5038849;28;20048;-75
2023/02/08 08:32:14;;;;;;;23.90;15.40;;;;;;;;;;5036068;28;20452;-74
2023/02/08 08:34:40;;;;;;;26.05;14.38;;;;;;;;;;5051622;28;20052;-75
2023/02/08 08:37:08;;;;;;;22.73;13.55;;;;;;;;;;5052864;28;20105;-74
2023/02/08 08:39:35;;;;;;;23.38;13.45;;;;;;;;;;5037113;28;20082;-74
2023/02/08 08:42:03;;;;;;;28.90;15.45;;;;;;;;;;5053138;28;20052;-75
2023/02/08 08:44:30;;;;;;;25.15;15.18;;;;;;;;;;5032256;28;20501;-74
2023/02/08 08:46:58;;;;;;;27.08;16.77;;;;;;;;;;5016431;28;20457;-73
2023/02/08 08:49:26;;;;;;;25.30;15.75;;;;;;;;;;5016406;28;20072;-73
2023/02/08 08:51:53;;;;;;;22.63;13.73;;;;;;;;;;5033263;28;20057;-75
2023/02/08 08:54:19;;;;;;;21.15;12.70;;;;;;;;;;5016487;28;20497;-73
2023/02/08 08:56:46;;;;;;;21.08;13.02;;;;;;;;;;5018297;28;20045;-75
2023/02/08 08:59:13;;;;;;;19.02;12.32;;;;;;;;;;5017710;28;20045;-74
2023/02/08 09:01:41;;;;;;;17.83;11.95;;;;;;;;;;5049784;28;20055;-73
2023/02/08 09:04:09;;;;;;;20.42;12.23;;;;;;;;;;5066310;28;20060;-73
2023/02/08 09:06:36;;;;;;;21.35;11.40;;;;;;;;;;5017223;28;20103;-72
2023/02/08 09:09:03;;;;;;;22.70;12.25;;;;;;;;;;5032861;28;20060;-73
2023/02/08 09:11:32;;;;;;;21.27;12.52;;;;;;;;;;5036837;28;20055;-74
2023/02/08 09:14:01;;;;;;;19.38;12.55;;;;;;;;;;5036510;28;20056;-74
2023/02/08 09:16:30;;;;;;;23.13;12.25;;;;;;;;;;5035733;28;20049;-74
2023/02/08 09:19:01;;;;;;;21.45;12.65;;;;;;;;;;5035840;28;20532;-74
2023/02/08 09:21:28;;;;;;;20.88;12.13;;;;;;;;;;5036247;28;20055;-73
2023/02/08 09:23:55;;;;;;;18.60;10.88;;;;;;;;;;5036349;28;20424;-73
2023/02/08 09:26:22;;;;;;;19.55;12.52;;;;;;;;;;5115338;23;20041;-80
2023/02/08 09:28:49;;;;;;;18.60;11.43;;;;;;;;;;5051460;28;20517;-80
2023/02/08 09:31:25;;;;;;;20.65;12.20;;;;;;;;;;5051089;28;20063;-80
2023/02/08 09:33:54;;;;;;;18.75;11.85;;;;;;;;;;5050052;28;20508;-80
2023/02/08 09:36:22;;;;;;;19.00;10.82;;;;;;;;;;5034847;28;20056;-80
2023/02/08 09:38:50;;;;;;;19.45;11.30;;;;;;;;;;5050708;28;20068;-80
2023/02/08 09:41:58;;;;;;;19.48;10.38;;;;;;;;;;5051178;28;20075;-80
2023/02/08 09:44:30;;;;;;;21.13;11.32;;;;;;;;;;5054624;28;20061;-80
2023/02/08 09:47:13;;;;;;;22.13;12.40;;;;;;;;;;5040355;28;20068;-80
2023/02/08 09:49:42;;;;;;;19.02;11.63;;;;;;;;;;5049846;28;20064;-80
2023/02/08 09:52:12;;;;;;;16.42;10.65;;;;;;;;;;5036867;28;20053;-80
2023/02/08 09:54:42;;;;;;;22.35;11.63;;;;;;;;;;5032368;28;20433;-80
2023/02/08 09:57:15;;;;;;;18.67;11.55;;;;;;;;;;5035135;28;20060;-80
2023/02/08 09:59:51;;;;;;;25.50;11.38;;;;;;;;;;5035797;28;20049;-80
2023/02/08 10:02:31;;;;;;;18.75;11.32;;;;;;;;;;5019438;28;20053;-80
2023/02/08 10:05:06;;;;;;;20.08;11.15;;;;;;;;;;5035234;28;20068;-80
2023/02/08 10:07:33;;;;;;;20.25;12.52;;;;;;;;;;5051551;28;20052;-80
2023/02/08 10:10:02;;;;;;;19.55;10.93;;;;;;;;;;5051625;28;20044;-80
2023/02/08 10:12:56;;;;;;;17.85;10.90;;;;;;;;;;5051437;28;20064;-80
2023/02/08 10:15:29;;;;;;;18.52;11.68;;;;;;;;;;5051765;28;20056;-80
2023/02/08 10:18:17;;;;;;;19.83;11.35;;;;;;;;;;5051543;28;20561;-80
2023/02/08 10:21:05;;;;;;;15.77;10.48;;;;;;;;;;5051479;28;20131;-80
2023/02/08 10:23:42;;;;;;;16.80;10.43;;;;;;;;;;5051690;28;20056;-80
2023/02/08 10:26:13;;;;;;;19.50;10.68;;;;;;;;;;5034807;28;20049;-80
2023/02/08 10:29:17;;;;;;;16.05;10.68;;;;;;;;;;5034616;28;20059;-81
2023/02/08 10:32:06;;;;;;;21.42;11.52;;;;;;;;;;5050975;28;20096;-80
2023/02/08 10:34:47;;;;;;;15.98;9.73;;;;;;;;;;5050996;28;20052;-80
2023/02/08 10:37:19;;;;;;;18.05;10.60;;;;;;;;;;5051031;28;20488;-80
2023/02/08 10:39:47;;;;;;;15.57;10.30;;;;;;;;;;5050997;28;20075;-80
2023/02/08 10:42:17;;;;;;;17.52;11.07;;;;;;;;;;5034794;28;20092;-80
2023/02/08 10:45:07;;;;;;;19.35;10.82;;;;;;;;;;5034743;28;20083;-80
2023/02/08 10:47:53;;;;;;;17.42;10.38;;;;;;;;;;5036341;28;20454;-80
2023/02/08 10:50:25;;;;;;;16.92;10.35;;;;;;;;;;5034619;28;20052;-80
2023/02/08 10:52:55;;;;;;;17.67;10.13;;;;;;;;;;5051399;28;20052;-80
2023/02/08 10:55:22;;;;;;;19.98;10.77;;;;;;;;;;5063947;28;20063;-80
2023/02/08 10:57:50;;;;;;;17.98;10.75;;;;;;;;;;5056000;28;20053;-81
2023/02/08 11:00:28;;;;;;;16.95;9.57;;;;;;;;;;5029670;28;20049;-80
2023/02/08 11:02:56;;;;;;;15.57;10.02;;;;;;;;;;5056218;28;20060;-81
2023/02/08 11:05:24;;;;;;;15.20;9.93;;;;;;;;;;5023390;28;20064;-80
2023/02/08 11:08:16;;;;;;;16.88;10.20;;;;;;;;;;5055439;28;20057;-80
2023/02/08 11:10:56;;;;;;;16.85;10.32;;;;;;;;;;5036941;28;20053;-80
2023/02/08 11:13:25;;;;;;;14.32;9.25;;;;;;;;;;5040095;28;20576;-81
2023/02/08 11:15:56;;;;;;;15.18;8.52;;;;;;;;;;5038641;28;20057;-81
2023/02/08 11:18:30;;;;;;;17.33;9.15;;;;;;;;;;5038915;28;20049;-80
2023/02/08 11:20:59;;;;;;;16.38;9.55;;;;;;;;;;5039410;28;20049;-80
2023/02/08 11:23:33;;;;;;;14.27;9.13;;;;;;;;;;5038558;28;20053;-80
2023/02/08 11:26:37;;;;;;;14.52;8.75;;;;;;;;;;5038694;28;20060;-80
2023/02/08 11:29:18;;;;;;;15.98;9.50;;;;;;;;;;5037942;28;20052;-80
2023/02/08 11:31:54;;;;;;;14.00;9.43;;;;;;;;;;5038645;28;20132;-81
2023/02/08 11:34:24;;;;;;;15.20;8.75;;;;;;;;;;5054771;28;20053;-81
2023/02/08 11:36:51;;;;;;;14.60;8.27;;;;;;;;;;5055135;28;20417;-81
2023/02/08 11:39:37;;;;;;;13.68;8.18;;;;;;;;;;5035381;28;20049;-81
2023/02/08 11:42:04;;;;;;;12.75;7.88;;;;;;;;;;5020481;28;20056;-80
2023/02/08 11:44:35;;;;;;;10.98;7.43;;;;;;;;;;5034522;28;20509;-80
2023/02/08 11:47:04;;;;;;;13.05;7.85;;;;;;;;;;5034949;28;20060;-81
2023/02/08 11:49:38;;;;;;;11.13;7.72;;;;;;;;;;5035567;28;20394;-80
2023/02/08 11:52:16;;;;;;;13.32;8.23;;;;;;;;;;5018727;28;20456;-80
2023/02/08 11:54:43;;;;;;;12.55;7.57;;;;;;;;;;5037183;28;20056;-80
2023/02/08 11:57:14;;;;;;;13.35;7.45;;;;;;;;;;5034735;28;20056;-80
2023/02/08 11:59:41;;;;;;;10.85;5.30;;;;;;;;;;5050487;28;20057;-80
2023/02/08 12:02:26;;;;;;;10.65;5.20;;;;;;;;;;5034460;28;20080;-80
2023/02/08 12:04:53;;;;;;;9.02;5.03;;;;;;;;;;5034498;28;20136;-80
2023/02/08 12:07:21;;;;;;;10.15;5.45;;;;;;;;;;5033704;28;20049;-81
2023/02/08 12:09:54;;;;;;;10.02;5.20;;;;;;;;;;5034378;28;20053;-80
2023/02/08 12:12:32;;;;;;;8.48;5.55;;;;;;;;;;5053980;28;20064;-81
2023/02/08 12:15:19;;;;;;;6.93;4.57;;;;;;;;;;5053674;28;20057;-80
2023/02/08 12:18:15;;;;;;;9.55;5.25;;;;;;;;;;5049640;28;20468;-80
2023/02/08 12:20:45;;;;;;;9.05;5.57;;;;;;;;;;5040407;28;20071;-80
2023/02/08 12:23:31;;;;;;;7.57;5.03;;;;;;;;;;5037739;28;20078;-80
2023/02/08 12:26:06;;;;;;;9.02;5.30;;;;;;;;;;5055019;28;20106;-80
2023/02/08 12:28:40;;;;;;;9.52;5.40;;;;;;;;;;5059292;28;20053;-80
2023/02/08 12:31:22;;;;;;;9.27;5.45;;;;;;;;;;5041859;28;20052;-80
2023/02/08 12:34:23;;;;;;;7.78;5.05;;;;;;;;;;5058112;28;20057;-81
2023/02/08 12:43:07;;;;;;;7.70;5.03;;;;;;;;;;5057149;28;20063;-80
2023/02/08 12:45:37;;;;;;;8.23;5.40;;;;;;;;;;5025630;28;20053;-80
2023/02/08 12:48:21;;;;;;;9.05;4.60;;;;;;;;;;5057542;28;20052;-81
2023/02/08 12:51:20;;;;;;;7.65;4.28;;;;;;;;;;5040288;28;20501;-81
2023/02/08 12:53:51;;;;;;;10.10;4.95;;;;;;;;;;5039139;28;20052;-80
2023/02/08 12:56:20;;;;;;;6.38;4.80;;;;;;;;;;5021807;28;20053;-81
2023/02/08 12:58:49;;;;;;;7.03;4.68;;;;;;;;;;5037209;28;20057;-80
2023/02/08 13:01:45;;;;;;;7.97;4.60;;;;;;;;;;5021581;28;20444;-81
2023/02/08 13:04:16;;;;;;;6.68;4.65;;;;;;;;;;5037070;28;20052;-81
2023/02/08 13:06:48;;;;;;;6.72;4.55;;;;;;;;;;5037443;28;20425;-81
2023/02/08 13:09:33;;;;;;;7.72;4.97;;;;;;;;;;5036927;28;20080;-80
2023/02/08 13:12:04;;;;;;;8.48;4.70;;;;;;;;;;5038842;28;20052;-79
2023/02/08 13:14:32;;;;;;;6.40;4.50;;;;;;;;;;5052872;28;20053;-79
2023/02/08 13:17:11;;;;;;;8.43;4.38;;;;;;;;;;5035991;28;20056;-79
2023/02/08 13:19:51;;;;;;;8.45;5.15;;;;;;;;;;5036081;28;20049;-79
2023/02/08 13:22:26;;;;;;;6.32;4.38;;;;;;;;;;5052079;28;20053;-79
2023/02/08 13:24:53;;;;;;;8.25;4.13;;;;;;;;;;5035841;28;20498;-79
2023/02/08 13:27:32;;;;;;;7.15;5.07;;;;;;;;;;5037753;28;20064;-79
2023/02/08 13:29:59;;;;;;;10.05;4.53;;;;;;;;;;5052407;28;20045;-79
2023/02/08 13:32:29;;;;;;;6.40;4.18;;;;;;;;;;5035813;28;20057;-79
2023/02/08 13:35:10;;;;;;;7.95;5.07;;;;;;;;;;5035831;28;20056;-79
2023/02/08 13:37:36;;;;;;;7.68;5.00;;;;;;;;;;5036800;28;20059;-79
2023/02/08 13:40:20;;;;;;;6.35;3.95;;;;;;;;;;5035935;28;20056;-79
2023/02/08 13:43:04;;;;;;;6.70;4.65;;;;;;;;;;5035675;28;20068;-79
2023/02/08 13:45:36;;;;;;;9.80;5.30;;;;;;;;;;5035403;28;20067;-79
2023/02/08 13:48:08;;;;;;;7.25;5.07;;;;;;;;;;5019306;28;20052;-78
2023/02/08 13:50:38;;;;;;;9.40;5.30;;;;;;;;;;5035483;28;20362;-79
2023/02/08 13:53:05;;;;;;;8.57;5.72;;;;;;;;;;5051722;28;20049;-79
2023/02/08 13:55:33;;;;;;;9.40;5.32;;;;;;;;;;5035135;28;20056;-79
2023/02/08 13:58:01;;;;;;;9.77;5.28;;;;;;;;;;5051413;28;20057;-79
2023/02/08 14:00:34;;;;;;;9.88;5.65;;;;;;;;;;5035663;28;20366;-79
2023/02/08 14:03:13;;;;;;;10.57;5.47;;;;;;;;;;5035809;28;20057;-79
2023/02/08 14:06:04;;;;;;;10.05;5.68;;;;;;;;;;5035173;28;20414;-79
2023/02/08 14:08:48;;;;;;;10.65;6.05;;;;;;;;;;5035505;28;20057;-79
2023/02/08 14:11:37;;;;;;;10.82;6.50;;;;;;;;;;5035858;28;20057;-79
2023/02/08 14:14:16;;;;;;;8.48;5.82;;;;;;;;;;5053049;28;20060;-79
2023/02/08 14:16:45;;;;;;;9.85;6.00;;;;;;;;;;5037941;28;20485;-79
2023/02/08 14:19:14;;;;;;;10.13;6.15;;;;;;;;;;5020536;28;20053;-79
2023/02/08 14:22:02;;;;;;;11.70;6.20;;;;;;;;;;5053769;28;20053;-79
2023/02/08 14:24:36;;;;;;;11.57;6.07;;;;;;;;;;5021794;28;20515;-78
2023/02/08 14:27:25;;;;;;;13.35;6.85;;;;;;;;;;5052693;28;20060;-78
2023/02/08 14:30:04;;;;;;;9.68;6.45;;;;;;;;;;5036780;28;20072;-79
2023/02/08 14:32:33;;;;;;;11.55;7.05;;;;;;;;;;5036469;28;20061;-79
2023/02/08 14:35:09;;;;;;;11.35;6.15;;;;;;;;;;5036999;28;20067;-79
2023/02/08 14:37:35;;;;;;;9.50;6.60;;;;;;;;;;5036905;28;20063;-79
2023/02/08 14:40:20;;;;;;;10.52;6.38;;;;;;;;;;5036644;28;20493;-79
2023/02/08 14:43:15;;;;;;;13.45;6.25;;;;;;;;;;5053270;28;20497;-79
2023/02/08 14:45:41;;;;;;;9.77;6.60;;;;;;;;;;5051609;28;20497;-79
2023/02/08 14:48:20;;;;;;;14.45;6.75;;;;;;;;;;5035277;28;20102;-79
2023/02/08 14:50:56;;;;;;;11.27;6.82;;;;;;;;;;5052636;28;20068;-78
2023/02/08 14:53:48;;;;;;;12.55;6.82;;;;;;;;;;5051976;28;20127;-79
2023/02/08 14:56:25;;;;;;;10.77;6.65;;;;;;;;;;5034190;28;20061;-79
2023/02/08 14:58:56;;;;;;;10.68;6.40;;;;;;;;;;5034821;28;20053;-79